createdAt,value
2018-11-02T00:00:39.758Z,99.80
2018-11-02T00:03:08.864Z,99.80
2018-11-02T00:05:37.638Z,99.80
2018-11-02T00:08:09.832Z,99.80
2018-11-02T00:10:38.503Z,99.80
2018-11-02T00:13:07.269Z,99.80
2018-11-02T00:15:35.902Z,99.80
2018-11-02T00:18:04.398Z,99.80
2018-11-02T00:20:32.920Z,99.80
2018-11-02T00:23:03.629Z,99.80
2018-11-02T00:25:32.199Z,99.80
2018-11-02T00:28:00.912Z,99.80
2018-11-02T00:30:29.409Z,99.80
2018-11-02T00:32:58.035Z,99.80
2018-11-02T00:35:26.568Z,99.80
2018-11-02T00:37:55.248Z,99.80
2018-11-02T00:40:29.160Z,99.80
2018-11-02T00:42:57.592Z,99.80
2018-11-02T00:45:26.025Z,99.80
2018-11-02T00:47:54.432Z,99.80
2018-11-02T00:50:23.579Z,99.80
2018-11-02T00:52:55.282Z,99.80
2018-11-02T00:55:24.341Z,99.80
2018-11-02T00:57:55.102Z,99.80
2018-11-02T01:00:24.700Z,99.80
2018-11-02T01:02:53.902Z,99.80
2018-11-02T01:05:35.133Z,99.80
2018-11-02T01:08:04.900Z,99.80
2018-11-02T01:10:33.484Z,99.80
2018-11-02T01:13:01.882Z,99.80
2018-11-02T01:15:30.400Z,99.80
2018-11-02T01:17:58.775Z,99.80
2018-11-02T01:20:27.444Z,99.80
2018-11-02T01:22:55.802Z,99.80
2018-11-02T01:25:30.694Z,99.80
2018-11-02T01:27:59.288Z,99.80
2018-11-02T01:30:27.886Z,99.80
2018-11-02T01:32:56.498Z,99.80
2018-11-02T01:35:25.385Z,99.80
2018-11-02T01:37:53.961Z,99.80
2018-11-02T01:40:22.416Z,99.80
2018-11-02T01:42:51.300Z,99.80
2018-11-02T01:45:19.762Z,99.80
2018-11-02T01:47:48.136Z,99.80
2018-11-02T01:50:16.559Z,99.80
2018-11-02T01:52:44.964Z,99.80
2018-11-02T01:55:14.970Z,99.80
2018-11-02T01:57:44.565Z,99.80
2018-11-02T02:00:13.854Z,99.80
2018-11-02T02:02:42.697Z,99.80
2018-11-02T02:05:11.185Z,99.80
2018-11-02T02:07:39.612Z,99.80
2018-11-02T02:10:08.202Z,99.80
2018-11-02T02:12:37.167Z,99.80
2018-11-02T02:15:07.493Z,99.80
2018-11-02T02:17:36.099Z,99.80
2018-11-02T02:20:05.520Z,99.80
2018-11-02T02:22:34.160Z,99.80
2018-11-02T02:25:02.604Z,99.80
2018-11-02T02:27:35.230Z,99.80
2018-11-02T02:30:04.144Z,99.80
2018-11-02T02:37:31.708Z,99.80
2018-11-02T02:40:00.325Z,99.80
2018-11-02T02:42:29.077Z,99.80
2018-11-02T02:44:57.453Z,99.80
2018-11-02T02:47:26.064Z,99.80
2018-11-02T02:49:54.470Z,99.80
2018-11-02T02:52:22.920Z,99.80
2018-11-02T02:54:51.320Z,99.80
2018-11-02T02:57:19.936Z,99.80
2018-11-02T02:59:48.579Z,99.80
2018-11-02T03:02:17.269Z,99.80
2018-11-02T03:04:45.736Z,99.80
2018-11-02T03:07:14.228Z,99.80
2018-11-02T03:09:42.682Z,99.80
2018-11-02T03:12:11.092Z,99.80
2018-11-02T03:14:39.538Z,99.80
2018-11-02T03:17:07.911Z,99.80
2018-11-02T03:19:36.348Z,99.80
2018-11-02T03:22:04.952Z,99.80
2018-11-02T03:24:33.436Z,99.80
2018-11-02T03:27:02.226Z,99.80
2018-11-02T03:29:30.692Z,99.80
2018-11-02T03:31:59.277Z,99.80
2018-11-02T03:34:27.720Z,99.80
2018-11-02T03:36:57.682Z,99.80
2018-11-02T03:39:26.121Z,99.80
2018-11-02T03:41:54.752Z,99.80
2018-11-02T03:44:29.715Z,99.80
2018-11-02T03:46:58.152Z,99.80
2018-11-02T03:49:26.824Z,99.80
2018-11-02T03:51:55.329Z,99.80
2018-11-02T03:54:23.790Z,99.80
2018-11-02T03:56:52.542Z,99.80
2018-11-02T03:59:21.241Z,99.80
2018-11-02T04:01:49.627Z,99.80
2018-11-02T04:04:18.009Z,99.80
2018-11-02T04:06:46.454Z,99.80
2018-11-02T04:09:14.922Z,99.80
2018-11-02T04:11:43.261Z,99.80
2018-11-02T04:14:11.653Z,99.80
2018-11-02T04:16:40.429Z,99.80
2018-11-02T04:19:08.815Z,99.80
2018-11-02T04:21:43.093Z,99.80
2018-11-02T04:24:11.523Z,99.80
2018-11-02T04:26:40.380Z,99.80
2018-11-02T04:29:09.460Z,99.80
2018-11-02T04:31:38.351Z,99.80
2018-11-02T04:34:06.933Z,99.80
2018-11-02T04:36:36.059Z,99.80
2018-11-02T04:39:06.855Z,99.80
2018-11-02T04:41:35.274Z,99.80
2018-11-02T04:44:04.176Z,99.80
2018-11-02T04:46:32.532Z,99.80
2018-11-02T04:49:08.550Z,99.80
2018-11-02T04:51:36.965Z,99.80
2018-11-02T04:54:05.798Z,99.80
2018-11-02T04:56:34.465Z,99.80
2018-11-02T04:59:03.038Z,99.80
2018-11-02T05:01:31.458Z,99.80
2018-11-02T05:03:59.928Z,99.80
2018-11-02T05:06:28.393Z,99.80
2018-11-02T05:08:56.986Z,99.80
2018-11-02T05:11:25.432Z,99.80
2018-11-02T05:13:53.862Z,99.80
2018-11-02T05:16:22.389Z,99.80
2018-11-02T05:18:50.833Z,99.80
2018-11-02T05:21:19.379Z,99.80
2018-11-02T05:23:47.703Z,99.80
2018-11-02T05:26:16.349Z,99.80
2018-11-02T05:28:44.941Z,99.80
2018-11-02T05:31:13.521Z,99.80
2018-11-02T05:33:42.056Z,99.80
2018-11-02T05:36:10.533Z,99.80
2018-11-02T05:38:39.008Z,99.80
2018-11-02T05:41:07.432Z,99.80
2018-11-02T05:43:35.799Z,99.80
2018-11-02T05:46:04.443Z,99.80
2018-11-02T05:48:32.961Z,99.80
2018-11-02T05:51:01.414Z,99.80
2018-11-02T05:53:29.812Z,99.80
2018-11-02T05:55:58.202Z,99.80
2018-11-02T05:58:26.694Z,99.80
2018-11-02T06:00:55.191Z,99.80
2018-11-02T06:03:24.500Z,99.80
2018-11-02T06:05:52.900Z,99.80
2018-11-02T06:08:22.316Z,99.80
2018-11-02T06:10:50.792Z,99.80
2018-11-02T06:13:19.251Z,99.80
2018-11-02T06:15:47.677Z,99.80
2018-11-02T06:18:16.042Z,99.80
2018-11-02T06:20:44.698Z,99.80
2018-11-02T06:23:13.065Z,99.80
2018-11-02T06:25:41.440Z,99.80
2018-11-02T06:28:09.864Z,99.80
2018-11-02T06:30:38.339Z,99.80
2018-11-02T06:33:06.697Z,99.80
2018-11-02T06:35:36.145Z,99.80
2018-11-02T06:38:04.586Z,99.80
2018-11-02T06:40:33.049Z,99.80
2018-11-02T06:43:01.586Z,99.80
2018-11-02T06:45:30.958Z,99.80
2018-11-02T06:47:59.369Z,99.80
2018-11-02T06:50:27.768Z,99.80
2018-11-02T06:52:56.252Z,99.80
2018-11-02T06:55:24.616Z,99.80
2018-11-02T06:57:53.199Z,99.80
2018-11-02T07:00:25.740Z,99.80
2018-11-02T07:02:55.160Z,99.80
2018-11-02T07:05:38.462Z,99.80
2018-11-02T07:08:07.725Z,99.80
2018-11-02T07:10:35.994Z,99.80
2018-11-02T07:13:04.618Z,99.80
2018-11-02T07:15:33.039Z,99.80
2018-11-02T07:18:01.594Z,99.80
2018-11-02T07:20:30.159Z,99.80
2018-11-02T07:22:58.919Z,99.80
2018-11-02T07:25:27.392Z,99.80
2018-11-02T07:27:55.766Z,99.80
2018-11-02T07:30:24.152Z,99.80
2018-11-02T07:32:52.509Z,99.80
2018-11-02T07:35:20.877Z,99.80
2018-11-02T07:37:49.220Z,99.80
2018-11-02T07:40:17.892Z,99.80
2018-11-02T07:42:46.247Z,99.80
2018-11-02T07:45:14.615Z,99.80
2018-11-02T07:47:43.176Z,99.80
2018-11-02T07:50:12.380Z,99.80
2018-11-02T07:52:40.820Z,99.80
2018-11-02T07:55:10.969Z,99.80
2018-11-02T07:57:39.639Z,99.80
2018-11-02T08:00:11.122Z,99.80
2018-11-02T08:02:41.400Z,99.80
2018-11-02T08:05:09.851Z,99.80
2018-11-02T08:07:38.748Z,99.80
2018-11-02T08:10:07.691Z,99.80
2018-11-02T08:12:36.532Z,99.80
2018-11-02T08:15:05.830Z,99.80
2018-11-02T08:17:34.323Z,99.80
2018-11-02T08:20:03.220Z,99.80
2018-11-02T08:22:31.623Z,99.80
2018-11-02T08:25:00.026Z,99.80
2018-11-02T08:27:28.441Z,99.80
2018-11-02T08:29:56.859Z,99.80
2018-11-02T08:32:25.228Z,99.80
2018-11-02T08:34:53.594Z,99.80
2018-11-02T08:37:22.030Z,99.80
2018-11-02T08:39:50.411Z,99.80
2018-11-02T08:42:18.768Z,99.80
2018-11-02T08:44:47.148Z,99.80
2018-11-02T08:47:15.502Z,99.80
2018-11-02T08:49:44.180Z,99.80
2018-11-02T08:52:12.673Z,99.80
2018-11-02T08:54:41.518Z,99.80
2018-11-02T08:57:09.907Z,99.80
2018-11-02T08:59:38.420Z,99.80
2018-11-02T09:02:07.083Z,99.80
2018-11-02T09:04:35.476Z,99.80
2018-11-02T09:07:03.817Z,99.80
2018-11-02T09:09:32.208Z,99.80
2018-11-02T09:12:00.698Z,99.70
2018-11-02T09:14:29.110Z,99.80
2018-11-02T09:16:57.562Z,99.80
2018-11-02T09:19:26.068Z,99.80
2018-11-02T09:21:54.538Z,99.70
2018-11-02T09:24:22.837Z,99.10
2018-11-02T09:26:51.216Z,98.80
2018-11-02T09:29:20.602Z,98.00
2018-11-02T09:31:49.050Z,97.70
2018-11-02T09:34:17.363Z,97.50
2018-11-02T09:36:45.773Z,97.10
2018-11-02T09:39:14.187Z,96.80
2018-11-02T09:41:42.613Z,96.60
2018-11-02T09:44:11.488Z,96.30
2018-11-02T09:46:39.912Z,96.10
2018-11-02T09:49:08.297Z,95.50
2018-11-02T09:51:36.961Z,95.10
2018-11-02T09:54:05.293Z,95.20
2018-11-02T09:56:33.892Z,91.30
2018-11-02T09:59:02.398Z,90.70
2018-11-02T10:01:30.865Z,90.90
2018-11-02T10:03:59.691Z,91.20
2018-11-02T10:06:28.189Z,90.50
2018-11-02T10:08:56.631Z,90.50
2018-11-02T10:11:25.021Z,90.70
2018-11-02T10:13:53.480Z,88.80
2018-11-02T10:16:21.919Z,88.90
2018-11-02T10:18:50.318Z,89.00
2018-11-02T10:21:18.887Z,88.80
2018-11-02T10:23:47.446Z,89.40
2018-11-02T10:26:15.930Z,87.60
2018-11-02T10:28:44.377Z,86.80
2018-11-02T10:31:12.808Z,87.30
2018-11-02T10:33:41.283Z,86.30
2018-11-02T10:36:09.766Z,85.90
2018-11-02T10:38:38.605Z,86.20
2018-11-02T10:41:07.757Z,85.20
2018-11-02T10:43:36.371Z,86.00
2018-11-02T10:46:04.965Z,85.20
2018-11-02T10:48:33.415Z,84.60
2018-11-02T10:51:01.940Z,83.80
2018-11-02T10:53:30.533Z,80.40
2018-11-02T10:55:59.638Z,62.50
2018-11-02T10:58:28.036Z,60.60
2018-11-02T11:01:02.016Z,54.60
2018-11-02T11:03:30.314Z,50.50
2018-11-02T11:05:58.804Z,46.80
2018-11-02T11:08:27.164Z,45.60
2018-11-02T11:10:55.513Z,42.40
2018-11-02T11:13:24.341Z,43.30
2018-11-02T11:15:52.389Z,41.20
2018-11-02T11:18:20.913Z,40.00
2018-11-02T11:20:49.358Z,39.70
2018-11-02T11:23:17.760Z,39.90
2018-11-02T11:25:46.197Z,40.30
2018-11-02T11:28:14.680Z,39.00
2018-11-02T11:30:43.079Z,39.50
2018-11-02T11:33:11.496Z,39.00
2018-11-02T11:35:39.900Z,39.50
2018-11-02T11:38:08.340Z,38.80
2018-11-02T11:40:36.739Z,37.90
2018-11-02T11:43:05.271Z,37.50
2018-11-02T11:45:33.636Z,36.10
2018-11-02T11:48:02.054Z,36.40
2018-11-02T11:50:30.456Z,35.80
2018-11-02T11:52:58.860Z,35.20
2018-11-02T11:55:27.330Z,36.00
2018-11-02T11:57:56.730Z,35.60
2018-11-02T12:00:25.155Z,34.90
2018-11-02T12:02:53.975Z,34.70
2018-11-02T12:05:23.373Z,34.30
2018-11-02T12:07:51.845Z,33.50
2018-11-02T12:10:22.532Z,32.70
2018-11-02T12:12:50.877Z,33.60
2018-11-02T12:15:20.538Z,33.50
2018-11-02T12:17:49.300Z,33.50
2018-11-02T12:20:27.113Z,33.40
2018-11-02T12:22:57.005Z,33.20
2018-11-02T12:25:25.433Z,32.90
2018-11-02T12:27:53.854Z,33.00
2018-11-02T12:30:22.309Z,33.50
2018-11-02T12:32:50.724Z,34.10
2018-11-02T12:35:19.772Z,33.30
2018-11-02T12:37:48.295Z,32.80
2018-11-02T12:40:18.172Z,32.00
2018-11-02T12:42:47.825Z,31.60
2018-11-02T12:45:17.301Z,33.60
2018-11-02T12:47:46.079Z,35.70
2018-11-02T12:50:18.060Z,38.90
2018-11-02T12:52:47.265Z,44.10
2018-11-02T12:55:16.315Z,47.50
2018-11-02T12:57:44.849Z,50.30
2018-11-02T13:00:15.420Z,53.50
2018-11-02T13:02:45.099Z,57.00
2018-11-02T13:05:13.745Z,58.90
2018-11-02T13:07:42.151Z,61.30
2018-11-02T13:10:12.247Z,63.40
2018-11-02T13:12:40.638Z,64.50
2018-11-02T13:15:11.364Z,64.40
2018-11-02T13:17:40.755Z,65.20
2018-11-02T13:20:09.376Z,67.00
2018-11-02T13:22:38.435Z,67.70
2018-11-02T13:25:07.976Z,68.90
2018-11-02T13:27:36.399Z,69.40
2018-11-02T13:30:05.364Z,70.10
2018-11-02T13:32:33.747Z,70.40
2018-11-02T13:35:02.546Z,70.90
2018-11-02T13:37:30.928Z,71.90
2018-11-02T13:39:59.501Z,73.20
2018-11-02T13:42:27.986Z,73.90
2018-11-02T13:44:56.404Z,75.40
2018-11-02T13:47:24.811Z,76.00
2018-11-02T13:49:53.254Z,77.50
2018-11-02T13:52:21.640Z,78.60
2018-11-02T13:54:50.076Z,79.70
2018-11-02T13:57:18.651Z,79.90
2018-11-02T13:59:47.090Z,80.20
2018-11-02T14:02:15.432Z,80.60
2018-11-02T14:04:43.851Z,81.00
2018-11-02T14:07:12.250Z,80.50
2018-11-02T14:09:41.532Z,80.40
2018-11-02T14:12:09.939Z,81.00
2018-11-02T14:14:38.388Z,81.20
2018-11-02T14:17:06.900Z,81.10
2018-11-02T14:19:35.314Z,81.30
2018-11-02T14:22:03.732Z,80.30
2018-11-02T14:24:32.452Z,80.20
2018-11-02T14:27:00.977Z,80.50
2018-11-02T14:29:29.457Z,81.10
2018-11-02T14:31:57.835Z,81.20
2018-11-02T14:34:26.288Z,81.50
2018-11-02T14:36:54.772Z,82.20
2018-11-02T14:39:23.181Z,83.30
2018-11-02T14:41:51.624Z,85.10
2018-11-02T14:49:15.582Z,86.30
2018-11-02T14:51:43.985Z,86.70
2018-11-02T14:54:12.395Z,86.50
2018-11-02T14:56:42.919Z,86.20
2018-11-02T14:59:11.338Z,85.70
2018-11-02T15:01:39.833Z,85.30
2018-11-02T15:04:09.651Z,84.30
2018-11-02T15:06:38.072Z,83.70
2018-11-02T15:09:10.097Z,83.60
2018-11-02T15:11:42.541Z,84.40
2018-11-02T15:14:11.018Z,85.30
2018-11-02T15:16:39.598Z,86.20
2018-11-02T15:19:08.108Z,86.50
2018-11-02T15:21:36.585Z,86.10
2018-11-02T15:24:05.431Z,86.70
2018-11-02T15:26:33.843Z,86.90
2018-11-02T15:29:02.246Z,87.60
2018-11-02T15:31:30.689Z,88.40
2018-11-02T15:33:59.206Z,88.90
2018-11-02T15:36:27.739Z,89.30
2018-11-02T15:38:57.056Z,89.50
2018-11-02T15:41:25.540Z,90.10
2018-11-02T15:43:53.902Z,90.20
2018-11-02T15:46:22.327Z,90.50
2018-11-02T15:48:51.132Z,90.70
2018-11-02T15:51:19.655Z,91.10
2018-11-02T15:53:48.088Z,91.00
2018-11-02T15:56:17.455Z,90.70
2018-11-02T15:58:46.463Z,90.70
2018-11-02T16:01:14.996Z,91.00
2018-11-02T16:03:43.599Z,91.20
2018-11-02T16:06:13.274Z,91.50
2018-11-02T16:08:42.072Z,91.90
2018-11-02T16:11:10.587Z,92.10
2018-11-02T16:13:38.990Z,92.40
2018-11-02T16:16:08.065Z,92.60
2018-11-02T16:18:36.490Z,92.80
2018-11-02T16:21:05.048Z,93.20
2018-11-02T16:23:33.484Z,93.40
2018-11-02T16:26:01.893Z,93.70
2018-11-02T16:28:30.353Z,94.10
2018-11-02T16:30:58.760Z,94.50
2018-11-02T16:33:27.203Z,95.00
2018-11-02T16:35:55.671Z,95.20
2018-11-02T16:38:24.143Z,95.40
2018-11-02T16:40:53.487Z,95.60
2018-11-02T16:43:21.944Z,95.80
2018-11-02T16:45:50.416Z,96.00
2018-11-02T16:48:19.082Z,96.10
2018-11-02T16:50:47.593Z,96.30
2018-11-02T16:53:16.039Z,96.40
2018-11-02T16:55:44.477Z,96.40
2018-11-02T16:58:12.926Z,96.20
2018-11-02T17:00:41.415Z,96.20
2018-11-02T17:03:09.920Z,96.20
2018-11-02T17:05:38.409Z,96.20
2018-11-02T17:08:06.840Z,96.20
2018-11-02T17:10:35.275Z,96.50
2018-11-02T17:13:03.800Z,96.80
2018-11-02T17:15:32.713Z,96.90
2018-11-02T17:18:01.641Z,97.10
2018-11-02T17:20:30.114Z,97.00
2018-11-02T17:22:58.620Z,96.90
2018-11-02T17:25:27.092Z,96.80
2018-11-02T17:27:55.494Z,97.00
2018-11-02T17:30:23.921Z,97.00
2018-11-02T17:32:52.460Z,97.30
2018-11-02T17:35:21.980Z,97.30
2018-11-02T17:37:50.448Z,97.40
2018-11-02T17:40:18.896Z,97.60
2018-11-02T17:42:47.336Z,97.70
2018-11-02T17:45:16.383Z,97.80
2018-11-02T17:47:44.907Z,97.90
2018-11-02T17:50:14.266Z,97.90
2018-11-02T17:52:42.790Z,98.10
2018-11-02T17:55:11.281Z,98.10
2018-11-02T17:57:39.707Z,98.20
2018-11-02T18:00:09.871Z,98.30
2018-11-02T18:02:38.286Z,97.80
2018-11-02T18:05:07.229Z,97.40
2018-11-02T18:07:35.801Z,96.20
2018-11-02T18:10:04.570Z,96.30
2018-11-02T18:12:33.007Z,96.40
2018-11-02T18:15:01.431Z,97.20
2018-11-02T18:17:29.853Z,97.40
2018-11-02T18:19:59.316Z,97.70
2018-11-02T18:22:28.442Z,98.20
2018-11-02T18:24:58.094Z,97.90
2018-11-02T18:27:26.648Z,96.50
2018-11-02T18:29:55.706Z,94.60
2018-11-02T18:32:24.117Z,94.30
2018-11-02T18:34:52.758Z,94.00
2018-11-02T18:37:25.401Z,93.50
2018-11-02T18:39:53.993Z,93.40
2018-11-02T18:42:22.472Z,93.80
2018-11-02T18:44:50.919Z,93.70
2018-11-02T18:47:19.397Z,93.90
2018-11-02T18:49:47.857Z,94.20
2018-11-02T18:52:17.509Z,94.30
2018-11-02T18:54:45.989Z,94.60
2018-11-02T18:57:14.438Z,94.90
2018-11-02T18:59:42.908Z,95.20
2018-11-02T19:02:11.361Z,95.20
2018-11-02T19:04:39.987Z,95.70
2018-11-02T19:07:08.433Z,95.80
2018-11-02T19:09:36.839Z,95.80
2018-11-02T19:12:05.614Z,95.80
2018-11-02T19:14:34.033Z,95.80
2018-11-02T19:17:02.478Z,95.70
2018-11-02T19:19:30.916Z,95.50
2018-11-02T19:21:59.322Z,95.60
2018-11-02T19:24:27.804Z,96.10
2018-11-02T19:26:56.226Z,95.70
2018-11-02T19:29:24.625Z,95.40
2018-11-02T19:31:53.294Z,95.40
2018-11-02T19:34:21.851Z,94.90
2018-11-02T19:36:50.190Z,94.50
2018-11-02T19:39:18.675Z,93.80
2018-11-02T19:41:47.180Z,93.80
2018-11-02T19:44:15.763Z,93.90
2018-11-02T19:46:44.644Z,93.60
2018-11-02T19:49:13.260Z,93.50
2018-11-02T19:51:41.745Z,93.60
2018-11-02T19:54:10.233Z,93.40
2018-11-02T19:56:38.874Z,93.60
2018-11-02T19:59:07.352Z,94.00
2018-11-02T20:01:36.121Z,94.00
2018-11-02T20:04:04.740Z,93.80
2018-11-02T20:06:33.168Z,93.30
2018-11-02T20:09:01.612Z,92.60
2018-11-02T20:11:29.998Z,92.10
2018-11-02T20:13:58.716Z,91.30
2018-11-02T20:16:27.178Z,90.60
2018-11-02T20:18:55.684Z,90.30
2018-11-02T20:21:24.217Z,90.10
2018-11-02T20:23:52.794Z,89.70
2018-11-02T20:26:21.332Z,89.40
2018-11-02T20:28:49.909Z,88.90
2018-11-02T20:31:18.409Z,88.70
2018-11-02T20:33:46.891Z,88.40
2018-11-02T20:36:15.351Z,88.50
2018-11-02T20:38:44.800Z,87.90
2018-11-02T20:41:13.249Z,87.90
2018-11-02T20:43:41.691Z,87.70
2018-11-02T20:46:10.206Z,87.70
2018-11-02T20:48:41.958Z,88.50
2018-11-02T20:51:10.345Z,89.40
2018-11-02T20:53:38.803Z,89.50
2018-11-02T20:56:07.304Z,89.20
2018-11-02T20:58:35.915Z,88.40
2018-11-02T21:01:04.450Z,87.70
2018-11-02T21:03:32.808Z,87.90
2018-11-02T21:06:01.454Z,87.10
2018-11-02T21:08:30.194Z,87.80
2018-11-02T21:10:58.674Z,87.60
2018-11-02T21:13:27.253Z,87.60
2018-11-02T21:15:55.980Z,87.60
2018-11-02T21:18:24.709Z,87.70
2018-11-02T21:20:53.249Z,87.00
2018-11-02T21:23:21.809Z,86.70
2018-11-02T21:25:50.396Z,86.80
2018-11-02T21:28:18.916Z,87.30
2018-11-02T21:30:47.338Z,88.00
2018-11-02T21:33:15.752Z,88.30
2018-11-02T21:35:44.184Z,88.10
2018-11-02T21:38:12.669Z,88.30
2018-11-02T21:40:41.788Z,88.30
2018-11-02T21:43:12.832Z,88.40
2018-11-02T21:45:41.455Z,88.90
2018-11-02T21:48:10.030Z,88.70
2018-11-02T21:50:39.002Z,88.00
2018-11-02T21:53:07.472Z,87.30
2018-11-02T21:55:35.962Z,87.20
2018-11-02T21:58:04.439Z,87.20
2018-11-02T22:00:32.980Z,87.00
2018-11-02T22:03:01.597Z,86.70
2018-11-02T22:05:30.118Z,86.80
2018-11-02T22:07:59.514Z,86.80
2018-11-02T22:10:27.901Z,87.10
2018-11-02T22:12:56.420Z,87.20
2018-11-02T22:15:24.854Z,87.20
2018-11-02T22:17:53.313Z,87.20
2018-11-02T22:20:21.742Z,87.20
2018-11-02T22:22:50.175Z,87.10
2018-11-02T22:25:19.211Z,86.70
2018-11-02T22:27:47.703Z,86.30
2018-11-02T22:30:17.428Z,86.20
2018-11-02T22:32:45.882Z,86.00
2018-11-02T22:35:15.160Z,86.00
2018-11-02T22:37:44.128Z,86.40
2018-11-02T22:40:14.150Z,86.60
2018-11-02T22:42:43.444Z,86.90
2018-11-02T22:45:13.247Z,87.30
2018-11-02T22:47:43.756Z,87.50
2018-11-02T22:50:14.453Z,87.00
2018-11-02T22:52:43.183Z,87.00
2018-11-02T22:55:11.872Z,87.20
2018-11-02T22:57:41.023Z,87.50
2018-11-02T23:00:14.616Z,87.40
2018-11-02T23:02:44.260Z,86.70
2018-11-02T23:05:12.977Z,86.50
2018-11-02T23:07:45.620Z,86.30
2018-11-02T23:10:14.505Z,86.30
2018-11-02T23:12:43.079Z,86.60
2018-11-02T23:15:14.214Z,86.50
2018-11-02T23:17:42.742Z,86.80
2018-11-02T23:20:14.435Z,87.00
2018-11-02T23:22:43.509Z,87.60
2018-11-02T23:25:12.764Z,88.20
2018-11-02T23:27:43.132Z,89.40
2018-11-02T23:30:12.262Z,89.70
2018-11-02T23:32:40.970Z,90.00
2018-11-02T23:35:09.660Z,90.20
2018-11-02T23:37:38.716Z,90.30
2018-11-02T23:40:08.480Z,89.80
2018-11-02T23:42:36.912Z,89.90
2018-11-02T23:45:06.621Z,89.60
2018-11-02T23:47:34.998Z,89.40
2018-11-02T23:50:03.627Z,89.70
2018-11-02T23:52:32.172Z,89.30
2018-11-02T23:55:00.700Z,88.90
2018-11-02T23:57:29.136Z,88.10
2018-11-02T23:59:57.611Z,87.90
